sensor_id;sensor_type;location;lat;lon;timestamp;P1;durP1;ratioP1;P2;durP2;ratioP2
5519;SDS011;2782;52.362;10.012;2022-12-13T00:00:51;4.60;;;3.35;;
5519;SDS011;2782;52.362;10.012;2022-12-13T00:01:52;3.65;;;3.30;;
5519;SDS011;2782;52.362;10.012;2022-12-13T00:02:54;3.33;;;3.03;;
5519;SDS011;2782;52.362;10.012;2022-12-13T00:03:56;3.95;;;2.80;;
5519;SDS011;2782;52.362;10.012;2022-12-13T00:04:58;3.25;;;2.55;;
5519;SDS011;2782;52.362;10.012;2022-12-13T00:05:59;4.35;;;3.55;;
5519;SDS011;2782;52.362;10.012;2022-12-13T00:07:04;4.30;;;3.10;;
5519;SDS011;2782;52.362;10.012;2022-12-13T00:08:08;4.25;;;3.15;;
5519;SDS011;2782;52.362;10.012;2022-12-13T00:09:09;3.80;;;2.80;;
5519;SDS011;2782;52.362;10.012;2022-12-13T00:10:13;4.63;;;3.38;;
5519;SDS011;2782;52.362;10.012;2022-12-13T00:11:15;6.20;;;3.25;;
5519;SDS011;2782;52.362;10.012;2022-12-13T00:12:16;3.47;;;2.80;;
5519;SDS011;2782;52.362;10.012;2022-12-13T00:13:17;4.75;;;3.17;;
5519;SDS011;2782;52.362;10.012;2022-12-13T00:14:18;3.30;;;3.00;;
5519;SDS011;2782;52.362;10.012;2022-12-13T00:15:20;4.00;;;3.00;;
5519;SDS011;2782;52.362;10.012;2022-12-13T00:16:23;4.80;;;3.40;;
5519;SDS011;2782;52.362;10.012;2022-12-13T00:17:26;3.90;;;3.15;;
5519;SDS011;2782;52.362;10.012;2022-12-13T00:18:27;5.33;;;3.03;;
5519;SDS011;2782;52.362;10.012;2022-12-13T00:19:29;5.07;;;3.00;;
5519;SDS011;2782;52.362;10.012;2022-12-13T00:20:29;3.97;;;3.23;;
5519;SDS011;2782;52.362;10.012;2022-12-13T00:21:31;3.72;;;3.25;;
5519;SDS011;2782;52.362;10.012;2022-12-13T00:22:32;4.25;;;3.60;;
5519;SDS011;2782;52.362;10.012;2022-12-13T00:23:34;4.18;;;3.60;;
5519;SDS011;2782;52.362;10.012;2022-12-13T00:24:35;6.82;;;2.65;;
5519;SDS011;2782;52.362;10.012;2022-12-13T00:25:37;4.45;;;2.90;;
5519;SDS011;2782;52.362;10.012;2022-12-13T00:26:37;10.70;;;3.57;;
5519;SDS011;2782;52.362;10.012;2022-12-13T00:27:39;3.78;;;2.55;;
5519;SDS011;2782;52.362;10.012;2022-12-13T00:28:40;3.27;;;2.97;;
5519;SDS011;2782;52.362;10.012;2022-12-13T00:29:42;3.13;;;2.78;;
5519;SDS011;2782;52.362;10.012;2022-12-13T00:30:43;5.03;;;3.10;;
5519;SDS011;2782;52.362;10.012;2022-12-13T00:31:45;3.60;;;3.27;;
5519;SDS011;2782;52.362;10.012;2022-12-13T00:32:47;4.35;;;2.85;;
5519;SDS011;2782;52.362;10.012;2022-12-13T00:33:48;4.93;;;3.13;;
5519;SDS011;2782;52.362;10.012;2022-12-13T00:34:50;3.95;;;3.55;;
5519;SDS011;2782;52.362;10.012;2022-12-13T00:35:50;3.03;;;2.73;;
5519;SDS011;2782;52.362;10.012;2022-12-13T00:36:52;4.30;;;2.60;;
5519;SDS011;2782;52.362;10.012;2022-12-13T00:37:53;3.70;;;2.87;;
5519;SDS011;2782;52.362;10.012;2022-12-13T00:38:55;4.18;;;3.38;;
5519;SDS011;2782;52.362;10.012;2022-12-13T00:40:02;3.88;;;2.85;;
5519;SDS011;2782;52.362;10.012;2022-12-13T00:41:11;3.22;;;2.55;;
5519;SDS011;2782;52.362;10.012;2022-12-13T00:42:12;3.13;;;2.85;;
5519;SDS011;2782;52.362;10.012;2022-12-13T00:43:14;4.13;;;2.63;;
5519;SDS011;2782;52.362;10.012;2022-12-13T00:44:16;4.07;;;3.00;;
5519;SDS011;2782;52.362;10.012;2022-12-13T00:45:18;3.63;;;3.33;;
5519;SDS011;2782;52.362;10.012;2022-12-13T00:46:20;5.72;;;3.42;;
5519;SDS011;2782;52.362;10.012;2022-12-13T00:47:22;4.20;;;2.90;;
5519;SDS011;2782;52.362;10.012;2022-12-13T00:48:24;5.30;;;3.42;;
5519;SDS011;2782;52.362;10.012;2022-12-13T00:49:25;3.50;;;2.90;;
5519;SDS011;2782;52.362;10.012;2022-12-13T00:50:26;3.83;;;2.90;;
5519;SDS011;2782;52.362;10.012;2022-12-13T00:51:29;3.63;;;3.00;;
5519;SDS011;2782;52.362;10.012;2022-12-13T00:52:32;5.57;;;3.35;;
5519;SDS011;2782;52.362;10.012;2022-12-13T00:53:33;7.50;;;3.60;;
5519;SDS011;2782;52.362;10.012;2022-12-13T00:54:35;3.97;;;3.00;;
5519;SDS011;2782;52.362;10.012;2022-12-13T00:55:39;3.17;;;2.72;;
5519;SDS011;2782;52.362;10.012;2022-12-13T00:56:40;5.00;;;3.60;;
5519;SDS011;2782;52.362;10.012;2022-12-13T00:57:42;8.50;;;3.50;;
5519;SDS011;2782;52.362;10.012;2022-12-13T00:58:43;2.87;;;2.67;;
5519;SDS011;2782;52.362;10.012;2022-12-13T00:59:44;4.53;;;3.10;;
5519;SDS011;2782;52.362;10.012;2022-12-13T01:00:46;6.93;;;2.80;;
5519;SDS011;2782;52.362;10.012;2022-12-13T01:01:47;4.50;;;3.40;;
5519;SDS011;2782;52.362;10.012;2022-12-13T01:02:50;4.75;;;2.80;;
5519;SDS011;2782;52.362;10.012;2022-12-13T01:03:52;5.93;;;2.42;;
5519;SDS011;2782;52.362;10.012;2022-12-13T01:04:55;3.92;;;3.47;;
5519;SDS011;2782;52.362;10.012;2022-12-13T01:05:56;4.73;;;3.30;;
5519;SDS011;2782;52.362;10.012;2022-12-13T01:06:58;4.43;;;3.10;;
5519;SDS011;2782;52.362;10.012;2022-12-13T01:08:00;3.80;;;2.95;;
5519;SDS011;2782;52.362;10.012;2022-12-13T01:09:01;3.10;;;2.80;;
5519;SDS011;2782;52.362;10.012;2022-12-13T01:10:05;4.05;;;3.17;;
5519;SDS011;2782;52.362;10.012;2022-12-13T01:11:08;3.72;;;3.10;;
5519;SDS011;2782;52.362;10.012;2022-12-13T01:12:09;4.20;;;3.20;;
5519;SDS011;2782;52.362;10.012;2022-12-13T01:13:11;3.72;;;2.80;;
5519;SDS011;2782;52.362;10.012;2022-12-13T01:14:13;4.53;;;3.17;;
5519;SDS011;2782;52.362;10.012;2022-12-13T01:15:15;4.72;;;3.00;;
5519;SDS011;2782;52.362;10.012;2022-12-13T01:16:16;3.20;;;2.90;;
5519;SDS011;2782;52.362;10.012;2022-12-13T01:17:18;3.78;;;2.60;;
5519;SDS011;2782;52.362;10.012;2022-12-13T01:18:20;2.90;;;2.60;;
5519;SDS011;2782;52.362;10.012;2022-12-13T01:19:22;4.78;;;3.10;;
5519;SDS011;2782;52.362;10.012;2022-12-13T01:20:23;3.30;;;2.92;;
5519;SDS011;2782;52.362;10.012;2022-12-13T01:21:25;4.20;;;3.20;;
5519;SDS011;2782;52.362;10.012;2022-12-13T01:22:26;3.43;;;2.97;;
5519;SDS011;2782;52.362;10.012;2022-12-13T01:23:27;3.83;;;3.40;;
5519;SDS011;2782;52.362;10.012;2022-12-13T01:24:29;3.72;;;3.00;;
5519;SDS011;2782;52.362;10.012;2022-12-13T01:25:32;3.40;;;3.10;;
5519;SDS011;2782;52.362;10.012;2022-12-13T01:26:32;4.20;;;3.03;;
5519;SDS011;2782;52.362;10.012;2022-12-13T01:27:34;5.25;;;3.17;;
5519;SDS011;2782;52.362;10.012;2022-12-13T01:28:35;4.33;;;3.00;;
5519;SDS011;2782;52.362;10.012;2022-12-13T01:29:37;4.10;;;3.13;;
5519;SDS011;2782;52.362;10.012;2022-12-13T01:30:39;2.90;;;2.60;;
5519;SDS011;2782;52.362;10.012;2022-12-13T01:31:39;3.40;;;3.10;;
5519;SDS011;2782;52.362;10.012;2022-12-13T01:32:41;4.00;;;2.90;;
5519;SDS011;2782;52.362;10.012;2022-12-13T01:33:43;3.70;;;3.33;;
5519;SDS011;2782;52.362;10.012;2022-12-13T01:34:46;4.03;;;3.10;;
5519;SDS011;2782;52.362;10.012;2022-12-13T01:35:49;3.88;;;3.47;;
5519;SDS011;2782;52.362;10.012;2022-12-13T01:36:50;3.90;;;3.40;;
5519;SDS011;2782;52.362;10.012;2022-12-13T01:37:52;4.13;;;2.60;;
5519;SDS011;2782;52.362;10.012;2022-12-13T01:38:52;4.43;;;3.73;;
5519;SDS011;2782;52.362;10.012;2022-12-13T01:39:54;3.72;;;3.22;;
5519;SDS011;2782;52.362;10.012;2022-12-13T01:40:55;3.63;;;3.20;;
5519;SDS011;2782;52.362;10.012;2022-12-13T01:41:57;3.33;;;3.03;;
5519;SDS011;2782;52.362;10.012;2022-12-13T01:43:01;4.43;;;3.03;;
5519;SDS011;2782;52.362;10.012;2022-12-13T01:44:02;3.80;;;3.20;;
5519;SDS011;2782;52.362;10.012;2022-12-13T01:45:08;3.30;;;2.90;;
5519;SDS011;2782;52.362;10.012;2022-12-13T01:46:20;4.47;;;3.00;;
5519;SDS011;2782;52.362;10.012;2022-12-13T01:47:24;3.10;;;2.90;;
5519;SDS011;2782;52.362;10.012;2022-12-13T01:48:30;6.53;;;3.33;;
5519;SDS011;2782;52.362;10.012;2022-12-13T01:49:37;3.88;;;3.08;;
5519;SDS011;2782;52.362;10.012;2022-12-13T01:50:40;3.35;;;3.05;;
5519;SDS011;2782;52.362;10.012;2022-12-13T01:51:45;4.80;;;3.28;;
5519;SDS011;2782;52.362;10.012;2022-12-13T01:52:50;4.18;;;2.97;;
5519;SDS011;2782;52.362;10.012;2022-12-13T01:53:53;3.28;;;2.97;;
5519;SDS011;2782;52.362;10.012;2022-12-13T01:54:59;3.42;;;3.00;;
5519;SDS011;2782;52.362;10.012;2022-12-13T01:56:06;3.30;;;2.65;;
5519;SDS011;2782;52.362;10.012;2022-12-13T01:57:11;3.25;;;2.92;;
5519;SDS011;2782;52.362;10.012;2022-12-13T01:58:15;3.47;;;2.83;;
5519;SDS011;2782;52.362;10.012;2022-12-13T01:59:17;3.17;;;2.85;;
5519;SDS011;2782;52.362;10.012;2022-12-13T02:00:19;3.78;;;2.78;;
5519;SDS011;2782;52.362;10.012;2022-12-13T02:01:20;3.88;;;3.25;;
5519;SDS011;2782;52.362;10.012;2022-12-13T02:02:21;4.03;;;3.15;;
5519;SDS011;2782;52.362;10.012;2022-12-13T02:03:23;2.88;;;2.63;;
5519;SDS011;2782;52.362;10.012;2022-12-13T02:04:26;4.05;;;3.00;;
5519;SDS011;2782;52.362;10.012;2022-12-13T02:05:32;3.53;;;2.72;;
5519;SDS011;2782;52.362;10.012;2022-12-13T02:06:38;2.88;;;2.63;;
5519;SDS011;2782;52.362;10.012;2022-12-13T02:07:42;3.03;;;2.63;;
5519;SDS011;2782;52.362;10.012;2022-12-13T02:08:47;4.35;;;3.35;;
5519;SDS011;2782;52.362;10.012;2022-12-13T02:09:49;4.70;;;3.42;;
5519;SDS011;2782;52.362;10.012;2022-12-13T02:10:51;4.78;;;3.55;;
5519;SDS011;2782;52.362;10.012;2022-12-13T02:11:52;2.92;;;2.65;;
5519;SDS011;2782;52.362;10.012;2022-12-13T02:12:55;3.45;;;2.95;;
5519;SDS011;2782;52.362;10.012;2022-12-13T02:13:57;3.90;;;3.08;;
5519;SDS011;2782;52.362;10.012;2022-12-13T02:15:00;3.05;;;2.75;;
5519;SDS011;2782;52.362;10.012;2022-12-13T02:16:05;3.38;;;2.90;;
5519;SDS011;2782;52.362;10.012;2022-12-13T02:17:14;4.15;;;3.20;;
5519;SDS011;2782;52.362;10.012;2022-12-13T02:18:27;4.30;;;3.53;;
5519;SDS011;2782;52.362;10.012;2022-12-13T02:19:46;3.40;;;3.10;;
5519;SDS011;2782;52.362;10.012;2022-12-13T02:21:11;3.45;;;3.15;;
5519;SDS011;2782;52.362;10.012;2022-12-13T02:22:32;4.68;;;2.97;;
5519;SDS011;2782;52.362;10.012;2022-12-13T02:23:54;3.20;;;2.90;;
5519;SDS011;2782;52.362;10.012;2022-12-13T02:26:46;3.45;;;2.92;;
5519;SDS011;2782;52.362;10.012;2022-12-13T02:28:01;3.13;;;2.70;;
5519;SDS011;2782;52.362;10.012;2022-12-13T02:30:44;2.78;;;2.58;;
5519;SDS011;2782;52.362;10.012;2022-12-13T02:31:52;3.00;;;2.75;;
5519;SDS011;2782;52.362;10.012;2022-12-13T02:33:09;4.20;;;3.05;;
5519;SDS011;2782;52.362;10.012;2022-12-13T02:34:22;3.00;;;2.70;;
5519;SDS011;2782;52.362;10.012;2022-12-13T02:35:27;3.95;;;3.38;;
5519;SDS011;2782;52.362;10.012;2022-12-13T02:36:36;4.45;;;2.78;;
5519;SDS011;2782;52.362;10.012;2022-12-13T02:37:45;3.08;;;2.85;;
5519;SDS011;2782;52.362;10.012;2022-12-13T02:38:55;2.70;;;2.50;;
5519;SDS011;2782;52.362;10.012;2022-12-13T02:40:00;3.40;;;3.10;;
5519;SDS011;2782;52.362;10.012;2022-12-13T02:41:10;3.22;;;2.90;;
5519;SDS011;2782;52.362;10.012;2022-12-13T02:42:16;4.95;;;3.20;;
5519;SDS011;2782;52.362;10.012;2022-12-13T02:43:22;4.65;;;3.45;;
5519;SDS011;2782;52.362;10.012;2022-12-13T02:44:27;3.33;;;3.00;;
5519;SDS011;2782;52.362;10.012;2022-12-13T02:45:36;3.72;;;2.80;;
5519;SDS011;2782;52.362;10.012;2022-12-13T02:46:42;3.40;;;3.10;;
5519;SDS011;2782;52.362;10.012;2022-12-13T02:47:51;3.22;;;2.85;;
5519;SDS011;2782;52.362;10.012;2022-12-13T02:48:56;4.43;;;3.00;;
5519;SDS011;2782;52.362;10.012;2022-12-13T02:50:01;4.25;;;3.20;;
5519;SDS011;2782;52.362;10.012;2022-12-13T02:51:05;6.35;;;3.05;;
5519;SDS011;2782;52.362;10.012;2022-12-13T02:52:09;3.20;;;2.90;;
5519;SDS011;2782;52.362;10.012;2022-12-13T02:53:12;2.97;;;2.67;;
5519;SDS011;2782;52.362;10.012;2022-12-13T02:54:16;4.38;;;3.15;;
5519;SDS011;2782;52.362;10.012;2022-12-13T02:55:16;3.30;;;2.60;;
5519;SDS011;2782;52.362;10.012;2022-12-13T02:56:18;3.42;;;3.03;;
5519;SDS011;2782;52.362;10.012;2022-12-13T02:57:27;3.80;;;3.40;;
5519;SDS011;2782;52.362;10.012;2022-12-13T02:58:31;3.08;;;2.75;;
5519;SDS011;2782;52.362;10.012;2022-12-13T02:59:35;3.42;;;3.13;;
5519;SDS011;2782;52.362;10.012;2022-12-13T03:00:42;2.70;;;2.50;;
5519;SDS011;2782;52.362;10.012;2022-12-13T03:01:54;3.88;;;3.03;;
5519;SDS011;2782;52.362;10.012;2022-12-13T03:03:06;3.45;;;3.05;;
5519;SDS011;2782;52.362;10.012;2022-12-13T03:04:15;4.97;;;3.05;;
5519;SDS011;2782;52.362;10.012;2022-12-13T03:05:26;3.40;;;3.10;;
5519;SDS011;2782;52.362;10.012;2022-12-13T03:06:56;3.78;;;3.30;;
5519;SDS011;2782;52.362;10.012;2022-12-13T03:08:08;3.70;;;3.33;;
5519;SDS011;2782;52.362;10.012;2022-12-13T03:09:21;3.25;;;2.78;;
5519;SDS011;2782;52.362;10.012;2022-12-13T03:10:32;3.45;;;3.00;;
5519;SDS011;2782;52.362;10.012;2022-12-13T03:11:43;3.50;;;3.20;;
5519;SDS011;2782;52.362;10.012;2022-12-13T03:13:11;3.72;;;3.25;;
5519;SDS011;2782;52.362;10.012;2022-12-13T03:14:38;3.45;;;2.90;;
5519;SDS011;2782;52.362;10.012;2022-12-13T03:15:46;3.70;;;3.00;;
5519;SDS011;2782;52.362;10.012;2022-12-13T03:16:56;3.15;;;2.85;;
5519;SDS011;2782;52.362;10.012;2022-12-13T03:18:01;4.05;;;3.65;;
5519;SDS011;2782;52.362;10.012;2022-12-13T03:19:14;2.70;;;2.50;;
5519;SDS011;2782;52.362;10.012;2022-12-13T03:20:15;2.93;;;2.63;;
5519;SDS011;2782;52.362;10.012;2022-12-13T03:21:18;3.10;;;2.80;;
5519;SDS011;2782;52.362;10.012;2022-12-13T03:22:18;3.70;;;3.27;;
5519;SDS011;2782;52.362;10.012;2022-12-13T03:23:20;3.40;;;3.10;;
5519;SDS011;2782;52.362;10.012;2022-12-13T03:24:21;4.00;;;2.85;;
5519;SDS011;2782;52.362;10.012;2022-12-13T03:25:29;3.00;;;2.60;;
5519;SDS011;2782;52.362;10.012;2022-12-13T03:26:30;5.13;;;3.60;;
5519;SDS011;2782;52.362;10.012;2022-12-13T03:27:33;3.63;;;2.40;;
5519;SDS011;2782;52.362;10.012;2022-12-13T03:28:34;3.40;;;3.10;;
5519;SDS011;2782;52.362;10.012;2022-12-13T03:29:36;3.03;;;2.80;;
5519;SDS011;2782;52.362;10.012;2022-12-13T03:30:36;4.47;;;3.10;;
5519;SDS011;2782;52.362;10.012;2022-12-13T03:31:38;2.63;;;2.42;;
5519;SDS011;2782;52.362;10.012;2022-12-13T03:32:41;3.25;;;2.95;;
5519;SDS011;2782;52.362;10.012;2022-12-13T03:33:42;3.40;;;3.10;;
5519;SDS011;2782;52.362;10.012;2022-12-13T03:34:44;3.22;;;3.00;;
5519;SDS011;2782;52.362;10.012;2022-12-13T03:35:45;4.25;;;3.38;;
5519;SDS011;2782;52.362;10.012;2022-12-13T03:36:47;3.30;;;3.00;;
5519;SDS011;2782;52.362;10.012;2022-12-13T03:37:48;3.77;;;3.43;;
5519;SDS011;2782;52.362;10.012;2022-12-13T03:38:50;2.65;;;2.45;;
5519;SDS011;2782;52.362;10.012;2022-12-13T03:39:53;3.20;;;2.53;;
5519;SDS011;2782;52.362;10.012;2022-12-13T03:40:56;3.20;;;2.90;;
5519;SDS011;2782;52.362;10.012;2022-12-13T03:41:59;4.55;;;3.47;;
5519;SDS011;2782;52.362;10.012;2022-12-13T03:43:00;2.83;;;2.63;;
5519;SDS011;2782;52.362;10.012;2022-12-13T03:44:03;3.40;;;2.95;;
5519;SDS011;2782;52.362;10.012;2022-12-13T03:45:06;3.40;;;3.10;;
5519;SDS011;2782;52.362;10.012;2022-12-13T03:46:08;4.15;;;2.90;;
5519;SDS011;2782;52.362;10.012;2022-12-13T03:47:11;4.70;;;3.40;;
5519;SDS011;2782;52.362;10.012;2022-12-13T03:48:13;3.92;;;3.53;;
5519;SDS011;2782;52.362;10.012;2022-12-13T03:49:15;3.38;;;3.08;;
5519;SDS011;2782;52.362;10.012;2022-12-13T03:50:16;2.83;;;2.63;;
5519;SDS011;2782;52.362;10.012;2022-12-13T03:51:17;3.00;;;2.70;;
5519;SDS011;2782;52.362;10.012;2022-12-13T03:52:19;3.42;;;2.70;;
5519;SDS011;2782;52.362;10.012;2022-12-13T03:53:20;3.17;;;2.80;;
5519;SDS011;2782;52.362;10.012;2022-12-13T03:54:23;2.70;;;2.50;;
5519;SDS011;2782;52.362;10.012;2022-12-13T03:55:24;3.28;;;2.97;;
5519;SDS011;2782;52.362;10.012;2022-12-13T03:56:25;2.90;;;2.40;;
5519;SDS011;2782;52.362;10.012;2022-12-13T03:57:27;3.47;;;2.90;;
5519;SDS011;2782;52.362;10.012;2022-12-13T03:58:28;4.00;;;3.60;;
5519;SDS011;2782;52.362;10.012;2022-12-13T03:59:30;3.10;;;2.80;;
5519;SDS011;2782;52.362;10.012;2022-12-13T04:00:31;3.90;;;2.80;;
5519;SDS011;2782;52.362;10.012;2022-12-13T04:01:33;3.47;;;2.92;;
5519;SDS011;2782;52.362;10.012;2022-12-13T04:02:34;3.35;;;2.78;;
5519;SDS011;2782;52.362;10.012;2022-12-13T04:03:37;4.07;;;2.63;;
5519;SDS011;2782;52.362;10.012;2022-12-13T04:04:39;3.63;;;2.88;;
5519;SDS011;2782;52.362;10.012;2022-12-13T04:05:41;3.10;;;2.80;;
5519;SDS011;2782;52.362;10.012;2022-12-13T04:06:42;3.27;;;2.97;;
5519;SDS011;2782;52.362;10.012;2022-12-13T04:07:43;3.08;;;2.78;;
5519;SDS011;2782;52.362;10.012;2022-12-13T04:08:44;3.13;;;2.93;;
5519;SDS011;2782;52.362;10.012;2022-12-13T04:09:46;3.10;;;2.80;;
5519;SDS011;2782;52.362;10.012;2022-12-13T04:10:46;5.30;;;2.87;;
5519;SDS011;2782;52.362;10.012;2022-12-13T04:11:48;3.60;;;2.97;;
5519;SDS011;2782;52.362;10.012;2022-12-13T04:13:08;2.95;;;2.70;;
5519;SDS011;2782;52.362;10.012;2022-12-13T04:14:27;4.22;;;2.78;;
5519;SDS011;2782;52.362;10.012;2022-12-13T04:15:29;4.07;;;2.90;;
5519;SDS011;2782;52.362;10.012;2022-12-13T04:16:30;3.97;;;3.03;;
5519;SDS011;2782;52.362;10.012;2022-12-13T04:17:31;2.35;;;2.15;;
5519;SDS011;2782;52.362;10.012;2022-12-13T04:18:32;3.17;;;2.70;;
5519;SDS011;2782;52.362;10.012;2022-12-13T04:19:35;3.47;;;3.10;;
5519;SDS011;2782;52.362;10.012;2022-12-13T04:20:37;2.55;;;2.35;;
5519;SDS011;2782;52.362;10.012;2022-12-13T04:21:37;3.20;;;2.90;;
5519;SDS011;2782;52.362;10.012;2022-12-13T04:22:39;3.10;;;2.80;;
5519;SDS011;2782;52.362;10.012;2022-12-13T04:23:40;3.23;;;2.90;;
5519;SDS011;2782;52.362;10.012;2022-12-13T04:24:41;3.22;;;2.90;;
5519;SDS011;2782;52.362;10.012;2022-12-13T04:25:43;3.67;;;3.13;;
5519;SDS011;2782;52.362;10.012;2022-12-13T04:26:44;2.78;;;2.58;;
5519;SDS011;2782;52.362;10.012;2022-12-13T04:27:46;2.97;;;2.50;;
5519;SDS011;2782;52.362;10.012;2022-12-13T04:28:46;3.00;;;2.70;;
5519;SDS011;2782;52.362;10.012;2022-12-13T04:29:51;2.72;;;2.53;;
5519;SDS011;2782;52.362;10.012;2022-12-13T04:30:51;2.75;;;2.55;;
5519;SDS011;2782;52.362;10.012;2022-12-13T04:31:53;4.00;;;3.25;;
5519;SDS011;2782;52.362;10.012;2022-12-13T04:32:55;3.13;;;2.83;;
5519;SDS011;2782;52.362;10.012;2022-12-13T04:33:55;2.93;;;2.67;;
5519;SDS011;2782;52.362;10.012;2022-12-13T04:34:58;3.25;;;2.95;;
5519;SDS011;2782;52.362;10.012;2022-12-13T04:35:59;3.50;;;3.20;;
5519;SDS011;2782;52.362;10.012;2022-12-13T04:37:01;3.20;;;2.70;;
5519;SDS011;2782;52.362;10.012;2022-12-13T04:38:02;2.97;;;2.67;;
5519;SDS011;2782;52.362;10.012;2022-12-13T04:39:04;3.55;;;2.97;;
5519;SDS011;2782;52.362;10.012;2022-12-13T04:40:06;3.25;;;2.95;;
5519;SDS011;2782;52.362;10.012;2022-12-13T04:41:11;2.90;;;2.60;;
5519;SDS011;2782;52.362;10.012;2022-12-13T04:42:16;2.58;;;2.38;;
5519;SDS011;2782;52.362;10.012;2022-12-13T04:43:16;3.00;;;2.67;;
5519;SDS011;2782;52.362;10.012;2022-12-13T04:44:18;3.30;;;2.83;;
5519;SDS011;2782;52.362;10.012;2022-12-13T04:45:19;2.65;;;2.45;;
5519;SDS011;2782;52.362;10.012;2022-12-13T04:46:22;2.95;;;2.50;;
5519;SDS011;2782;52.362;10.012;2022-12-13T04:47:22;4.03;;;2.83;;
5519;SDS011;2782;52.362;10.012;2022-12-13T04:48:24;3.03;;;2.72;;
5519;SDS011;2782;52.362;10.012;2022-12-13T04:49:25;2.70;;;2.50;;
5519;SDS011;2782;52.362;10.012;2022-12-13T04:50:28;3.20;;;2.65;;
5519;SDS011;2782;52.362;10.012;2022-12-13T04:51:29;2.70;;;2.50;;
5519;SDS011;2782;52.362;10.012;2022-12-13T04:52:30;2.80;;;2.60;;
5519;SDS011;2782;52.362;10.012;2022-12-13T04:53:32;3.25;;;2.95;;
5519;SDS011;2782;52.362;10.012;2022-12-13T04:54:33;3.53;;;2.27;;
5519;SDS011;2782;52.362;10.012;2022-12-13T04:55:35;2.90;;;2.70;;
5519;SDS011;2782;52.362;10.012;2022-12-13T04:56:36;2.53;;;2.33;;
5519;SDS011;2782;52.362;10.012;2022-12-13T04:57:38;3.95;;;2.90;;
5519;SDS011;2782;52.362;10.012;2022-12-13T04:58:40;3.03;;;2.72;;
5519;SDS011;2782;52.362;10.012;2022-12-13T04:59:41;2.83;;;2.60;;
5519;SDS011;2782;52.362;10.012;2022-12-13T05:00:45;2.55;;;2.35;;
5519;SDS011;2782;52.362;10.012;2022-12-13T05:01:46;2.93;;;2.60;;
5519;SDS011;2782;52.362;10.012;2022-12-13T05:02:48;2.97;;;2.67;;
5519;SDS011;2782;52.362;10.012;2022-12-13T05:03:48;2.53;;;2.33;;
5519;SDS011;2782;52.362;10.012;2022-12-13T05:04:50;2.58;;;2.38;;
5519;SDS011;2782;52.362;10.012;2022-12-13T05:05:53;2.60;;;2.40;;
5519;SDS011;2782;52.362;10.012;2022-12-13T05:06:54;2.80;;;2.60;;
5519;SDS011;2782;52.362;10.012;2022-12-13T05:07:56;2.63;;;2.42;;
5519;SDS011;2782;52.362;10.012;2022-12-13T05:08:58;3.03;;;2.72;;
5519;SDS011;2782;52.362;10.012;2022-12-13T05:10:00;2.50;;;2.30;;
5519;SDS011;2782;52.362;10.012;2022-12-13T05:11:03;4.05;;;2.85;;
5519;SDS011;2782;52.362;10.012;2022-12-13T05:12:04;3.33;;;2.85;;
5519;SDS011;2782;52.362;10.012;2022-12-13T05:13:06;2.45;;;2.25;;
5519;SDS011;2782;52.362;10.012;2022-12-13T05:14:07;3.00;;;2.57;;
5519;SDS011;2782;52.362;10.012;2022-12-13T05:15:09;3.15;;;2.63;;
5519;SDS011;2782;52.362;10.012;2022-12-13T05:16:10;5.20;;;3.03;;
5519;SDS011;2782;52.362;10.012;2022-12-13T05:17:12;2.75;;;2.55;;
5519;SDS011;2782;52.362;10.012;2022-12-13T05:18:12;2.90;;;2.60;;
5519;SDS011;2782;52.362;10.012;2022-12-13T05:19:14;2.72;;;2.45;;
5519;SDS011;2782;52.362;10.012;2022-12-13T05:20:15;2.57;;;2.37;;
5519;SDS011;2782;52.362;10.012;2022-12-13T05:21:18;3.20;;;2.42;;
5519;SDS011;2782;52.362;10.012;2022-12-13T05:22:20;2.83;;;2.20;;
5519;SDS011;2782;52.362;10.012;2022-12-13T05:23:21;2.63;;;2.30;;
5519;SDS011;2782;52.362;10.012;2022-12-13T05:24:24;2.97;;;2.70;;
5519;SDS011;2782;52.362;10.012;2022-12-13T05:25:25;3.27;;;2.43;;
5519;SDS011;2782;52.362;10.012;2022-12-13T05:26:27;2.70;;;2.50;;
5519;SDS011;2782;52.362;10.012;2022-12-13T05:27:28;3.00;;;2.60;;
5519;SDS011;2782;52.362;10.012;2022-12-13T05:28:29;2.58;;;2.38;;
5519;SDS011;2782;52.362;10.012;2022-12-13T05:29:31;2.65;;;2.15;;
5519;SDS011;2782;52.362;10.012;2022-12-13T05:30:33;2.95;;;2.63;;
5519;SDS011;2782;52.362;10.012;2022-12-13T05:31:36;2.35;;;2.15;;
5519;SDS011;2782;52.362;10.012;2022-12-13T05:32:38;2.38;;;2.17;;
5519;SDS011;2782;52.362;10.012;2022-12-13T05:33:38;3.23;;;2.27;;
5519;SDS011;2782;52.362;10.012;2022-12-13T05:34:40;3.50;;;2.67;;
5519;SDS011;2782;52.362;10.012;2022-12-13T05:35:41;2.80;;;2.50;;
5519;SDS011;2782;52.362;10.012;2022-12-13T05:36:44;2.55;;;2.35;;
5519;SDS011;2782;52.362;10.012;2022-12-13T05:37:45;2.55;;;2.35;;
5519;SDS011;2782;52.362;10.012;2022-12-13T05:38:46;2.92;;;2.50;;
5519;SDS011;2782;52.362;10.012;2022-12-13T05:39:47;4.00;;;3.23;;
5519;SDS011;2782;52.362;10.012;2022-12-13T05:40:49;2.72;;;2.53;;
5519;SDS011;2782;52.362;10.012;2022-12-13T05:41:49;2.70;;;2.50;;
5519;SDS011;2782;52.362;10.012;2022-12-13T05:42:51;3.30;;;2.50;;
5519;SDS011;2782;52.362;10.012;2022-12-13T05:43:52;2.55;;;2.25;;
5519;SDS011;2782;52.362;10.012;2022-12-13T05:44:54;2.80;;;2.10;;
5519;SDS011;2782;52.362;10.012;2022-12-13T05:45:56;2.97;;;2.78;;
5519;SDS011;2782;52.362;10.012;2022-12-13T05:46:56;2.70;;;2.50;;
5519;SDS011;2782;52.362;10.012;2022-12-13T05:47:58;7.15;;;2.70;;
5519;SDS011;2782;52.362;10.012;2022-12-13T05:48:59;2.40;;;2.20;;
5519;SDS011;2782;52.362;10.012;2022-12-13T05:50:01;7.57;;;2.88;;
5519;SDS011;2782;52.362;10.012;2022-12-13T05:51:02;6.75;;;3.40;;
5519;SDS011;2782;52.362;10.012;2022-12-13T05:52:05;3.08;;;2.70;;
5519;SDS011;2782;52.362;10.012;2022-12-13T05:53:06;3.20;;;2.40;;
5519;SDS011;2782;52.362;10.012;2022-12-13T05:54:07;4.30;;;2.90;;
5519;SDS011;2782;52.362;10.012;2022-12-13T05:55:09;2.85;;;2.55;;
5519;SDS011;2782;52.362;10.012;2022-12-13T05:56:10;4.13;;;3.10;;
5519;SDS011;2782;52.362;10.012;2022-12-13T05:57:12;4.35;;;2.80;;
5519;SDS011;2782;52.362;10.012;2022-12-13T05:58:14;4.65;;;2.65;;
5519;SDS011;2782;52.362;10.012;2022-12-13T05:59:16;7.20;;;2.83;;
5519;SDS011;2782;52.362;10.012;2022-12-13T06:00:17;7.60;;;2.97;;
5519;SDS011;2782;52.362;10.012;2022-12-13T06:01:19;9.55;;;3.80;;
5519;SDS011;2782;52.362;10.012;2022-12-13T06:02:20;12.63;;;3.70;;
5519;SDS011;2782;52.362;10.012;2022-12-13T06:03:22;10.73;;;4.25;;
5519;SDS011;2782;52.362;10.012;2022-12-13T06:04:22;7.23;;;3.23;;
5519;SDS011;2782;52.362;10.012;2022-12-13T06:05:24;11.25;;;3.45;;
5519;SDS011;2782;52.362;10.012;2022-12-13T06:06:25;15.23;;;3.10;;
5519;SDS011;2782;52.362;10.012;2022-12-13T06:07:28;10.45;;;3.80;;
5519;SDS011;2782;52.362;10.012;2022-12-13T06:08:28;12.30;;;3.20;;
5519;SDS011;2782;52.362;10.012;2022-12-13T06:09:31;10.23;;;3.35;;
5519;SDS011;2782;52.362;10.012;2022-12-13T06:10:33;13.88;;;3.97;;
5519;SDS011;2782;52.362;10.012;2022-12-13T06:11:35;9.88;;;3.63;;
5519;SDS011;2782;52.362;10.012;2022-12-13T06:12:36;15.27;;;3.10;;
5519;SDS011;2782;52.362;10.012;2022-12-13T06:13:39;9.18;;;3.33;;
5519;SDS011;2782;52.362;10.012;2022-12-13T06:14:40;10.32;;;3.25;;
5519;SDS011;2782;52.362;10.012;2022-12-13T06:15:42;9.43;;;3.03;;
5519;SDS011;2782;52.362;10.012;2022-12-13T06:16:43;8.60;;;3.20;;
5519;SDS011;2782;52.362;10.012;2022-12-13T06:17:45;12.38;;;3.95;;
5519;SDS011;2782;52.362;10.012;2022-12-13T06:18:45;11.57;;;3.63;;
5519;SDS011;2782;52.362;10.012;2022-12-13T06:19:47;9.48;;;3.63;;
5519;SDS011;2782;52.362;10.012;2022-12-13T06:20:54;17.27;;;4.07;;
5519;SDS011;2782;52.362;10.012;2022-12-13T06:21:56;9.38;;;3.50;;
5519;SDS011;2782;52.362;10.012;2022-12-13T06:22:59;7.43;;;3.40;;
5519;SDS011;2782;52.362;10.012;2022-12-13T06:24:00;14.18;;;3.80;;
5519;SDS011;2782;52.362;10.012;2022-12-13T06:25:04;5.57;;;3.20;;
5519;SDS011;2782;52.362;10.012;2022-12-13T06:26:06;16.67;;;3.95;;
5519;SDS011;2782;52.362;10.012;2022-12-13T06:27:11;4.72;;;3.45;;
5519;SDS011;2782;52.362;10.012;2022-12-13T06:28:13;4.93;;;3.42;;
5519;SDS011;2782;52.362;10.012;2022-12-13T06:29:13;5.63;;;3.20;;
5519;SDS011;2782;52.362;10.012;2022-12-13T06:30:16;9.05;;;3.13;;